Time;durP1;ratioP1;P1;durP2;ratioP2;P2;SDS_P1;SDS_P2;PMS_P1;PMS_P2;Temp;Humidity;BMP_temperature;BMP_pressure;BME280_temperature;BME280_humidity;BME280_pressure;Samples;Min_cycle;Max_cycle;Signal;HPM_P1;HPM_P2
2021/12/08 00:00:30;;;;;;;6.50;5.20;;;;;;;5.80;65.20;100574.44;2073741;28;20678;-63
2021/12/08 00:01:31;;;;;;;5.60;4.97;;;;;;;5.83;65.20;100585.41;2073593;28;20569;-63
2021/12/08 00:02:32;;;;;;;6.60;5.20;;;;;;;5.80;65.65;100577.97;2073268;28;20312;-63
2021/12/08 00:03:33;;;;;;;7.53;5.30;;;;;;;5.83;65.70;100579.91;2073778;28;20181;-62
2021/12/08 00:04:33;;;;;;;6.13;5.07;;;;;;;5.84;65.18;100578.72;2073619;28;20209;-63
2021/12/08 00:05:34;;;;;;;6.80;5.27;;;;;;;5.79;65.04;100581.09;2073582;28;20182;-62
2021/12/08 00:06:34;;;;;;;6.23;5.10;;;;;;;5.80;65.63;100585.44;2073262;28;20560;-63
2021/12/08 00:07:35;;;;;;;6.10;5.07;;;;;;;5.56;65.56;100545.06;2072324;28;20181;-63
2021/12/08 00:08:36;;;;;;;6.30;5.17;;;;;;;5.69;65.99;100584.69;2073507;28;20594;-62
2021/12/08 00:13:10;;;;;;;7.70;6.20;;;;;;;5.39;65.77;100549.47;2073789;28;20197;-63
2021/12/08 00:14:11;;;;;;;7.97;5.93;;;;;;;5.71;66.62;100601.56;2073600;28;20170;-62
2021/12/08 00:15:12;;;;;;;7.73;6.20;;;;;;;4.78;66.07;100462.19;2073600;28;20182;-63
2021/12/08 00:16:13;;;;;;;7.97;6.03;;;;;;;5.55;67.11;100593.00;2073244;28;20679;-63
2021/12/08 00:17:13;;;;;;;7.57;6.30;;;;;;;5.54;66.52;100592.19;2072964;28;20670;-62
2021/12/08 00:18:16;;;;;;;8.33;6.43;;;;;;;5.55;66.82;100593.00;2072871;28;20216;-63
2021/12/08 00:19:17;;;;;;;7.25;6.50;;;;;;;5.57;66.53;100599.66;2073649;28;20735;-63
2021/12/08 00:20:18;;;;;;;8.77;6.87;;;;;;;5.52;66.72;100611.06;2080523;28;20658;-62
2021/12/08 00:21:19;;;;;;;8.93;7.10;;;;;;;5.46;66.61;100589.88;2081080;28;20181;-63
2021/12/08 00:22:20;;;;;;;7.90;6.60;;;;;;;5.55;66.65;100593.75;2073543;28;20208;-62
2021/12/08 00:23:21;;;;;;;8.37;6.90;;;;;;;5.53;67.07;100595.38;2073504;28;20180;-63
2021/12/08 00:24:22;;;;;;;7.68;6.70;;;;;;;5.44;67.05;100578.50;2073182;28;20182;-63
2021/12/08 00:25:22;;;;;;;7.93;6.57;;;;;;;5.57;67.11;100598.84;2073376;28;20270;-62
2021/12/08 00:26:23;;;;;;;7.17;6.13;;;;;;;5.55;67.09;100604.75;2073532;28;20192;-63
2021/12/08 00:27:23;;;;;;;7.37;6.13;;;;;;;5.46;67.08;100593.41;2072399;28;20185;-62
2021/12/08 00:28:25;;;;;;;7.90;6.20;;;;;;;5.55;66.64;100603.97;2073648;28;20185;-63
2021/12/08 00:29:25;;;;;;;7.55;6.15;;;;;;;5.51;67.37;100593.00;2072930;28;20279;-63
2021/12/08 00:30:27;;;;;;;7.57;5.83;;;;;;;4.48;66.77;100450.13;2073322;28;20186;-62
2021/12/08 00:31:28;;;;;;;8.82;6.60;;;;;;;5.42;67.18;100591.84;2073653;28;20177;-63
2021/12/08 00:32:31;;;;;;;7.47;5.97;;;;;;;5.52;67.25;100613.81;2073416;28;20181;-63
2021/12/08 00:33:33;;;;;;;6.90;5.70;;;;;;;5.44;66.88;100623.25;2073124;28;20170;-63
2021/12/08 00:34:34;;;;;;;8.30;6.70;;;;;;;5.47;67.56;100607.94;2073407;28;20181;-63
2021/12/08 00:35:36;;;;;;;7.80;6.63;;;;;;;5.50;67.85;100615.38;2073037;28;20664;-63
2021/12/08 00:36:47;;;;;;;8.20;6.60;;;;;;;5.52;67.15;100610.25;2073448;28;20174;-63
2021/12/08 00:37:48;;;;;;;8.32;7.20;;;;;;;5.54;67.08;100621.66;2072606;28;20166;-63
2021/12/08 00:38:49;;;;;;;8.25;6.43;;;;;;;5.51;67.25;100612.25;2073108;28;20715;-63
2021/12/08 00:39:50;;;;;;;8.37;6.97;;;;;;;5.54;67.09;100618.91;2073400;28;20204;-63
2021/12/08 00:40:51;;;;;;;8.45;7.07;;;;;;;5.40;67.31;100621.69;2073242;28;20587;-63
2021/12/08 00:41:52;;;;;;;8.88;6.93;;;;;;;4.70;67.72;100526.53;2073380;28;20182;-63
2021/12/08 00:42:53;;;;;;;8.80;6.70;;;;;;;5.32;67.72;100607.19;2073140;28;20186;-63
2021/12/08 00:43:53;;;;;;;7.72;6.82;;;;;;;5.17;67.65;100594.69;2073373;28;20184;-62
2021/12/08 00:44:54;;;;;;;8.80;7.30;;;;;;;5.31;67.58;100616.63;2073332;28;20192;-62
2021/12/08 00:45:56;;;;;;;9.07;7.60;;;;;;;5.31;67.70;100616.63;2080650;28;20181;-62
2021/12/08 00:46:57;;;;;;;8.25;7.00;;;;;;;5.27;68.48;100618.59;2080036;28;20609;-62
2021/12/08 00:47:57;;;;;;;7.83;6.37;;;;;;;5.18;68.09;100617.44;2072671;28;20176;-63
2021/12/08 00:48:58;;;;;;;8.50;6.77;;;;;;;5.20;67.95;100612.34;2073367;28;20678;-62
2021/12/08 00:49:58;;;;;;;8.27;6.80;;;;;;;4.47;67.93;100506.19;2080876;28;20271;-63
2021/12/08 00:50:59;;;;;;;8.80;7.03;;;;;;;5.21;68.59;100613.91;2080741;28;20193;-63
2021/12/08 00:51:59;;;;;;;9.13;7.50;;;;;;;5.21;68.22;100620.19;2072933;28;20569;-62
2021/12/08 00:53:01;;;;;;;9.03;7.03;;;;;;;4.66;68.24;100539.47;2073273;28;20196;-62
2021/12/08 00:54:02;;;;;;;8.32;7.43;;;;;;;5.25;68.25;100620.19;2073398;28;20181;-62
2021/12/08 00:55:09;;;;;;;8.80;7.30;;;;;;;5.21;67.85;100611.16;2073284;28;20206;-63
2021/12/08 00:56:09;;;;;;;9.10;7.60;;;;;;;5.30;67.74;100626.06;2072785;28;20245;-63
2021/12/08 00:57:10;;;;;;;9.57;7.43;;;;;;;5.27;68.48;100617.81;2072784;28;20185;-63
2021/12/08 00:58:10;;;;;;;9.20;7.43;;;;;;;5.22;68.45;100621.75;2072565;28;20339;-63
2021/12/08 00:59:11;;;;;;;9.27;7.73;;;;;;;5.23;68.50;100622.53;2073368;28;20196;-63
2021/12/08 01:00:16;;;;;;;9.53;7.67;;;;;;;5.22;67.96;100615.47;2073275;28;20174;-62
2021/12/08 01:01:18;;;;;;;9.23;7.53;;;;;;;4.27;68.19;100466.63;2072749;28;20224;-62
2021/12/08 01:02:18;;;;;;;8.98;7.53;;;;;;;5.21;68.03;100614.69;2073269;28;20185;-62
2021/12/08 01:03:20;;;;;;;9.37;7.73;;;;;;;5.20;68.32;100626.06;2073176;28;20212;-63
2021/12/08 01:04:21;;;;;;;8.88;7.65;;;;;;;4.94;68.27;100577.06;2073146;28;20189;-62
2021/12/08 01:05:25;;;;;;;9.70;8.10;;;;;;;5.10;68.24;100622.19;2072572;28;20294;-62
2021/12/08 01:06:26;;;;;;;10.05;8.10;;;;;;;5.05;68.29;100625.31;2073270;28;20667;-62
2021/12/08 01:07:26;;;;;;;10.53;8.73;;;;;;;5.08;68.66;100619.03;2072093;28;20603;-63
2021/12/08 01:08:29;;;;;;;10.10;8.60;;;;;;;4.22;68.70;100487.00;2073149;28;20551;-63
2021/12/08 01:09:31;;;;;;;9.40;7.85;;;;;;;5.19;68.30;100638.25;2072918;28;20181;-63
2021/12/08 01:10:31;;;;;;;10.00;8.10;;;;;;;5.17;68.40;100624.91;2072711;28;20185;-63
2021/12/08 01:11:32;;;;;;;10.20;8.63;;;;;;;5.19;68.52;100622.53;2073297;28;20224;-63
2021/12/08 01:12:32;;;;;;;10.93;8.57;;;;;;;5.25;68.71;100625.66;2073039;28;20176;-63
2021/12/08 01:13:33;;;;;;;10.73;9.20;;;;;;;5.22;68.45;100615.47;2073096;28;20193;-63
2021/12/08 01:14:34;;;;;;;11.50;9.23;;;;;;;5.33;67.99;100629.97;2072760;28;20190;-63
2021/12/08 01:15:39;;;;;;;9.88;8.48;;;;;;;5.38;67.89;100624.84;2073429;28;20237;-63
2021/12/08 01:16:39;;;;;;;11.43;8.57;;;;;;;5.27;68.10;100618.59;2073107;28;20270;-63
2021/12/08 01:17:40;;;;;;;9.77;8.30;;;;;;;5.12;68.41;100617.06;2071869;28;20694;-63
2021/12/08 01:18:41;;;;;;;10.83;9.10;;;;;;;4.46;68.05;100491.66;2072539;28;20270;-63
2021/12/08 01:19:41;;;;;;;10.47;8.57;;;;;;;5.33;68.63;100617.00;2073118;28;20202;-62
2021/12/08 01:20:43;;;;;;;9.90;8.60;;;;;;;5.37;67.78;100612.28;2080418;28;20583;-63
2021/12/08 01:21:44;;;;;;;11.10;9.15;;;;;;;4.51;67.84;100480.28;2080462;28;20241;-63
2021/12/08 01:22:45;;;;;;;11.07;9.10;;;;;;;5.39;67.82;100631.13;2073187;28;20231;-63
2021/12/08 01:23:46;;;;;;;11.73;9.23;;;;;;;4.58;67.38;100485.78;2072728;28;20610;-63
2021/12/08 01:24:47;;;;;;;10.75;9.25;;;;;;;4.40;67.55;100465.81;2072997;28;20720;-63
2021/12/08 01:25:47;;;;;;;10.30;8.87;;;;;;;5.42;67.81;100622.06;2072914;28;20608;-63
2021/12/08 01:26:48;;;;;;;11.40;8.70;;;;;;;5.37;67.43;100617.78;2072731;28;20329;-63
2021/12/08 01:27:49;;;;;;;11.77;9.47;;;;;;;5.39;67.79;100618.16;2071651;28;20170;-62
2021/12/08 01:28:51;;;;;;;10.73;8.90;;;;;;;5.40;66.91;100617.00;2073074;28;20187;-62
2021/12/08 01:29:52;;;;;;;9.98;8.85;;;;;;;5.29;67.65;100618.97;2072861;28;20178;-63
2021/12/08 01:30:54;;;;;;;10.70;8.93;;;;;;;5.36;67.25;100620.94;2073048;28;20178;-63
2021/12/08 01:31:55;;;;;;;11.18;8.50;;;;;;;5.25;67.32;100609.97;2073034;28;20659;-63
2021/12/08 01:32:56;;;;;;;12.37;9.90;;;;;;;4.13;67.36;100431.75;2072571;28;20571;-62
2021/12/08 01:33:57;;;;;;;11.25;9.38;;;;;;;5.28;67.34;100619.38;2073021;28;20257;-63
2021/12/08 01:34:58;;;;;;;10.73;9.17;;;;;;;5.31;67.28;100613.88;2072941;28;20174;-63
2021/12/08 01:35:59;;;;;;;11.40;9.75;;;;;;;5.28;67.48;100606.41;2072989;28;20181;-63
2021/12/08 01:36:59;;;;;;;11.75;9.90;;;;;;;5.27;67.71;100610.34;2071997;28;20219;-63
2021/12/08 01:38:00;;;;;;;11.93;9.53;;;;;;;5.32;67.26;100612.69;2072051;28;20177;-63
2021/12/08 01:39:00;;;;;;;11.70;9.40;;;;;;;5.35;67.06;100614.66;2073054;28;20235;-63
2021/12/08 01:40:07;;;;;;;11.90;10.03;;;;;;;5.01;67.28;100569.63;2072975;28;20205;-62
2021/12/08 01:41:08;;;;;;;11.45;9.52;;;;;;;5.27;67.45;100613.09;2072727;28;20254;-63
2021/12/08 01:42:15;;;;;;;12.97;10.67;;;;;;;5.35;66.65;100613.88;2072665;28;20606;-63
2021/12/08 01:43:39;;;;;;;13.15;10.63;;;;;;;4.37;66.97;100465.81;2073054;28;20397;-63
2021/12/08 01:46:06;;;;;;;13.48;10.55;;;;;;;5.30;67.13;100623.31;2072570;28;20189;-62
2021/12/08 01:47:07;;;;;;;13.85;11.18;;;;;;;5.27;66.64;100646.06;2072406;28;20220;-63
2021/12/08 01:48:11;;;;;;;13.30;11.00;;;;;;;5.27;66.89;100621.34;2072240;28;20177;-63
2021/12/08 01:49:13;;;;;;;14.38;10.85;;;;;;;5.25;66.69;100618.22;2072798;28;20722;-62
2021/12/08 01:50:13;;;;;;;14.57;11.05;;;;;;;5.25;66.54;100612.72;2072540;28;20188;-62
2021/12/08 01:51:17;;;;;;;13.00;10.83;;;;;;;5.25;66.91;100618.22;2080381;28;20187;-62
2021/12/08 01:52:18;;;;;;;12.98;10.55;;;;;;;5.27;66.98;100618.59;2080175;28;20171;-62
2021/12/08 01:53:19;;;;;;;13.47;10.60;;;;;;;5.26;67.64;100616.25;2072944;28;20213;-63
2021/12/08 01:54:20;;;;;;;14.07;11.30;;;;;;;5.30;67.61;100617.81;2072859;28;20184;-62
2021/12/08 01:55:20;;;;;;;13.67;11.13;;;;;;;5.35;67.00;100619.38;2072345;28;20272;-63
2021/12/08 01:56:24;;;;;;;13.00;10.90;;;;;;;5.41;66.35;100615.81;2072807;28;20185;-62
2021/12/08 01:57:24;;;;;;;13.35;10.10;;;;;;;4.48;66.05;100467.38;2071707;28;20178;-63
2021/12/08 01:58:26;;;;;;;12.10;9.87;;;;;;;5.48;66.21;100617.75;2072977;28;20205;-62
2021/12/08 01:59:27;;;;;;;11.77;9.80;;;;;;;5.45;66.16;100615.81;2072373;28;20188;-62
2021/12/08 02:00:35;;;;;;;13.67;10.80;;;;;;;5.37;66.47;100609.53;2072761;28;20182;-63
2021/12/08 02:01:39;;;;;;;13.52;10.18;;;;;;;5.50;66.13;100615.38;2067813;28;20556;-62
2021/12/08 02:02:40;;;;;;;14.13;10.65;;;;;;;5.39;65.45;100623.66;2064631;28;20609;-62
2021/12/08 02:03:41;;;;;;;13.87;10.87;;;;;;;4.37;65.49;100463.09;2064585;28;20186;-62
2021/12/08 02:04:43;;;;;;;13.05;10.90;;;;;;;5.42;65.74;100616.59;2072279;28;20213;-62
2021/12/08 02:05:44;;;;;;;14.00;10.55;;;;;;;4.72;65.44;100499.47;2064679;28;20680;-62
2021/12/08 02:06:50;;;;;;;13.82;10.65;;;;;;;4.50;65.57;100464.22;2064658;28;20639;-62
2021/12/08 02:07:51;;;;;;;13.25;10.65;;;;;;;5.47;65.32;100622.47;2063785;28;20713;-63
2021/12/08 02:08:52;;;;;;;13.70;11.17;;;;;;;4.63;65.46;100490.88;2069696;28;20594;-62
2021/12/08 02:09:53;;;;;;;14.63;11.47;;;;;;;5.06;65.85;100573.91;2072750;28;20186;-62
2021/12/08 02:10:54;;;;;;;13.57;11.10;;;;;;;5.34;66.00;100628.78;2072708;28;20180;-62
2021/12/08 02:11:56;;;;;;;13.60;11.13;;;;;;;5.29;65.89;100613.47;2072754;28;20184;-62
2021/12/08 02:12:57;;;;;;;14.27;11.23;;;;;;;5.36;65.85;100626.41;2072337;28;20177;-62
2021/12/08 02:14:01;;;;;;;12.83;10.40;;;;;;;5.15;65.17;100599.00;2072775;28;20665;-62
2021/12/08 02:15:01;;;;;;;12.65;10.30;;;;;;;5.35;65.81;100628.41;2072742;28;20172;-62
2021/12/08 02:16:06;;;;;;;12.23;10.47;;;;;;;5.33;65.94;100621.72;2072167;28;20208;-63
2021/12/08 02:17:10;;;;;;;12.00;9.23;;;;;;;5.37;64.98;100633.47;2071851;28;20180;-63
2021/12/08 02:18:14;;;;;;;12.88;9.32;;;;;;;4.77;64.54;100526.50;2071539;28;20682;-62
2021/12/08 02:19:14;;;;;;;13.13;9.57;;;;;;;4.98;64.48;100545.66;2072744;28;20243;-62
2021/12/08 02:20:16;;;;;;;12.00;9.20;;;;;;;5.41;64.36;100632.31;2072571;28;20183;-62
2021/12/08 02:21:28;;;;;;;12.70;9.75;;;;;;;5.37;64.35;100617.00;2072164;28;20181;-62
2021/12/08 02:22:29;;;;;;;12.23;9.43;;;;;;;5.39;64.35;100611.91;2079493;28;20195;-62
2021/12/08 02:23:31;;;;;;;15.37;10.30;;;;;;;5.41;65.10;100624.06;2080248;28;20215;-62
2021/12/08 02:24:31;;;;;;;12.32;10.15;;;;;;;5.46;64.14;100617.34;2072624;28;20172;-62
2021/12/08 02:25:32;;;;;;;12.73;10.27;;;;;;;5.46;64.86;100622.84;2072507;28;20191;-63
2021/12/08 02:26:34;;;;;;;12.73;10.20;;;;;;;5.34;64.68;100618.56;2072215;28;20181;-62
2021/12/08 02:27:35;;;;;;;13.10;10.43;;;;;;;4.80;64.64;100527.69;2071270;28;20647;-62
2021/12/08 02:28:36;;;;;;;12.70;10.38;;;;;;;5.35;64.75;100619.38;2072764;28;20178;-62
2021/12/08 02:29:47;;;;;;;14.13;10.83;;;;;;;5.41;64.45;100635.06;2072514;28;20181;-62
2021/12/08 02:30:58;;;;;;;15.27;10.57;;;;;;;5.44;64.37;100642.47;2072537;28;20662;-62
2021/12/08 02:32:25;;;;;;;14.02;10.57;;;;;;;4.96;63.99;100569.22;2072706;28;20177;-62
2021/12/08 02:48:13;;;;;;;13.70;10.50;;;;;;;5.34;64.32;100612.31;2062627;28;20186;-62
2021/12/08 02:49:15;;;;;;;14.60;11.37;;;;;;;5.42;64.84;100638.56;2069412;28;20209;-63
2021/12/08 02:50:18;;;;;;;13.85;11.27;;;;;;;5.42;64.38;100613.84;2072372;28;20650;-62
2021/12/08 02:51:20;;;;;;;13.93;11.30;;;;;;;4.49;64.61;100482.66;2072564;28;20560;-62
2021/12/08 02:52:20;;;;;;;15.45;12.30;;;;;;;5.39;65.13;100626.41;2072403;28;20584;-62
2021/12/08 02:53:21;;;;;;;13.73;11.07;;;;;;;5.48;65.13;100642.50;2072535;28;20212;-63
2021/12/08 02:54:22;;;;;;;15.13;12.50;;;;;;;5.50;65.15;100645.63;2072243;28;20603;-62
2021/12/08 02:55:24;;;;;;;15.00;11.33;;;;;;;5.39;64.67;100633.88;2072490;28;20185;-62
2021/12/08 02:56:26;;;;;;;13.88;10.90;;;;;;;5.42;65.08;100644.84;2072432;28;20225;-63
2021/12/08 02:57:27;;;;;;;15.18;12.02;;;;;;;4.76;64.60;100557.88;2071327;28;20189;-62
2021/12/08 02:58:27;;;;;;;14.85;11.60;;;;;;;5.39;65.39;100648.38;2071973;28;20213;-62
2021/12/08 02:59:28;;;;;;;16.00;11.70;;;;;;;5.41;64.97;100676.28;2072623;28;20663;-62
2021/12/08 03:00:33;;;;;;;14.97;11.73;;;;;;;5.32;65.18;100640.19;2072411;28;20182;-62
2021/12/08 03:01:35;;;;;;;15.20;11.80;;;;;;;5.37;65.29;100653.50;2072756;28;20377;-62
2021/12/08 03:02:35;;;;;;;14.85;11.18;;;;;;;5.40;64.78;100649.97;2071934;28;20178;-62
2021/12/08 03:03:36;;;;;;;14.53;12.10;;;;;;;5.43;65.23;100646.41;2072578;28;20264;-62
2021/12/08 03:04:37;;;;;;;16.07;12.70;;;;;;;5.20;64.97;100617.81;2072543;28;20181;-63
2021/12/08 03:05:37;;;;;;;16.05;12.40;;;;;;;4.57;65.06;100541.06;2072249;28;20279;-63
2021/12/08 03:06:38;;;;;;;16.43;12.43;;;;;;;5.48;64.95;100643.25;2072660;28;20643;-63
2021/12/08 03:07:38;;;;;;;16.10;12.37;;;;;;;5.52;65.14;100652.28;2070808;28;20181;-62
2021/12/08 03:08:39;;;;;;;14.63;11.83;;;;;;;5.57;64.81;100648.34;2072596;28;20173;-63
2021/12/08 03:09:39;;;;;;;16.17;12.23;;;;;;;5.60;64.81;100658.56;2072503;28;20531;-62
2021/12/08 03:10:43;;;;;;;14.90;12.23;;;;;;;5.57;64.58;100651.88;2072670;28;20178;-62
2021/12/08 03:11:44;;;;;;;15.80;12.57;;;;;;;4.28;64.58;100463.50;2071953;28;20228;-62
2021/12/08 03:12:44;;;;;;;15.00;11.47;;;;;;;5.53;63.63;100662.09;2071965;28;20186;-62
2021/12/08 03:14:03;;;;;;;13.93;10.83;;;;;;;5.49;63.39;100661.31;2072423;28;20260;-62
2021/12/08 03:15:04;;;;;;;15.65;11.35;;;;;;;5.47;64.57;100651.91;2072514;28;20161;-62
2021/12/08 03:16:05;;;;;;;13.35;10.73;;;;;;;5.45;64.02;100655.06;2072036;28;20190;-63
2021/12/08 03:17:09;;;;;;;14.75;11.35;;;;;;;5.49;64.03;100657.81;2072155;28;20177;-63
2021/12/08 03:18:10;;;;;;;14.30;11.70;;;;;;;5.45;63.62;100668.81;2071500;28;20229;-62
2021/12/08 03:19:11;;;;;;;16.58;11.60;;;;;;;5.42;64.34;100655.06;2072437;28;20208;-62
2021/12/08 03:20:16;;;;;;;13.97;11.57;;;;;;;5.38;64.25;100659.81;2072535;28;20341;-62
2021/12/08 03:21:16;;;;;;;14.32;11.23;;;;;;;5.42;63.98;100655.06;2071902;28;20177;-62
2021/12/08 03:22:17;;;;;;;15.37;11.73;;;;;;;3.93;64.02;100430.59;2072385;28;20180;-62
2021/12/08 03:23:22;;;;;;;15.23;12.27;;;;;;;5.45;64.05;100663.31;2072346;28;20181;-62
2021/12/08 03:24:44;;;;;;;17.92;12.77;;;;;;;5.46;64.52;100656.63;2072628;28;20561;-62
2021/12/08 03:25:55;;;;;;;18.23;13.52;;;;;;;5.46;64.44;100658.59;2071915;28;20179;-62
2021/12/08 03:28:11;;;;;;;16.65;13.13;;;;;;;5.41;64.54;100659.00;2071606;28;20177;-62
2021/12/08 03:29:23;;;;;;;18.15;13.52;;;;;;;5.42;64.76;100655.84;2072487;28;20200;-62
2021/12/08 03:30:35;;;;;;;17.40;13.50;;;;;;;5.33;64.41;100660.19;2072110;28;20651;-62
2021/12/08 03:31:42;;;;;;;17.90;13.43;;;;;;;5.35;65.14;100666.06;2072454;28;20172;-62
2021/12/08 03:32:42;;;;;;;18.95;14.18;;;;;;;5.39;64.76;100662.13;2072563;28;20631;-62
2021/12/08 03:33:44;;;;;;;16.50;13.27;;;;;;;5.41;64.53;100661.75;2073528;28;20814;-63
2021/12/08 03:34:52;;;;;;;18.80;14.75;;;;;;;5.33;64.95;100662.94;2073351;28;20262;-63
2021/12/08 03:35:53;;;;;;;18.40;13.80;;;;;;;4.81;64.78;100592.38;2073945;28;20158;-62
2021/12/08 03:36:53;;;;;;;17.92;14.27;;;;;;;5.31;64.47;100663.34;2073272;28;20181;-62
2021/12/08 03:37:54;;;;;;;18.67;14.77;;;;;;;4.34;64.00;100516.78;2072830;28;20189;-63
2021/12/08 03:38:55;;;;;;;17.43;14.07;;;;;;;5.37;64.85;100661.75;2073299;28;20206;-62
2021/12/08 03:39:57;;;;;;;19.57;14.47;;;;;;;5.06;63.94;100631.59;2073760;28;20178;-62
2021/12/08 03:40:59;;;;;;;18.92;14.38;;;;;;;5.44;64.18;100671.94;2073591;28;20574;-62
2021/12/08 03:42:01;;;;;;;17.80;13.68;;;;;;;5.46;64.54;100672.31;2073864;28;20184;-62
2021/12/08 03:43:01;;;;;;;19.73;15.40;;;;;;;4.61;64.26;100534.38;2073563;28;20174;-62
2021/12/08 03:44:04;;;;;;;19.17;14.50;;;;;;;5.55;63.79;100673.47;2073800;28;20181;-62
2021/12/08 03:45:14;;;;;;;19.15;14.45;;;;;;;5.52;63.98;100663.28;2073601;28;20205;-62
2021/12/08 03:46:16;;;;;;;17.77;13.90;;;;;;;5.46;63.85;100653.09;2073704;28;20160;-62
2021/12/08 03:47:25;;;;;;;17.23;13.70;;;;;;;5.11;63.98;100607.25;2073258;28;20211;-63
2021/12/08 03:48:51;;;;;;;17.35;13.52;;;;;;;5.48;63.52;100661.75;2073357;28;20185;-63
2021/12/08 03:49:53;;;;;;;19.65;14.32;;;;;;;5.56;63.47;100675.06;2072659;28;20898;-62
2021/12/08 03:50:55;;;;;;;16.60;12.88;;;;;;;5.52;63.44;100674.28;2073868;28;20593;-63
2021/12/08 03:52:00;;;;;;;19.55;14.07;;;;;;;5.53;63.68;100680.56;2073708;28;20182;-63
2021/12/08 03:53:01;;;;;;;19.55;13.45;;;;;;;5.59;63.06;100681.72;2072992;28;20183;-62
2021/12/08 03:54:02;;;;;;;17.10;13.17;;;;;;;4.81;63.67;100556.69;2073640;28;20207;-62
2021/12/08 03:55:04;;;;;;;18.60;13.17;;;;;;;5.22;63.63;100635.47;2073622;28;20192;-62
2021/12/08 03:56:05;;;;;;;17.67;12.85;;;;;;;5.70;62.93;100682.47;2073514;28;20228;-62
2021/12/08 03:57:06;;;;;;;17.58;13.50;;;;;;;5.68;62.79;100690.31;2072658;28;20192;-63
2021/12/08 03:58:07;;;;;;;17.93;13.60;;;;;;;5.68;63.17;100698.56;2072702;28;20182;-63
2021/12/08 03:59:07;;;;;;;18.23;14.00;;;;;;;5.64;63.21;100693.09;2073587;28;20181;-62
2021/12/08 04:00:14;;;;;;;17.70;13.87;;;;;;;5.66;63.20;100692.69;2073748;28;20170;-62
2021/12/08 04:01:15;;;;;;;19.63;14.05;;;;;;;5.60;63.28;100697.03;2073243;28;20162;-62
2021/12/08 04:02:15;;;;;;;19.00;13.77;;;;;;;5.63;63.46;100698.97;2073588;28;20178;-62
2021/12/08 04:03:18;;;;;;;18.03;14.10;;;;;;;5.53;62.90;100691.56;2073729;28;20284;-63
2021/12/08 04:04:18;;;;;;;18.63;13.73;;;;;;;5.57;63.49;100701.38;2073626;28;20178;-62
2021/12/08 04:05:30;;;;;;;17.37;13.60;;;;;;;5.55;63.48;100700.97;2073443;28;20177;-62
2021/12/08 04:06:44;;;;;;;19.38;13.90;;;;;;;4.65;63.31;100559.88;2073207;28;20235;-63
2021/12/08 04:07:47;;;;;;;20.17;13.80;;;;;;;5.53;63.50;100702.56;2072520;28;20170;-63
2021/12/08 04:08:54;;;;;;;17.30;13.38;;;;;;;5.57;63.07;100703.31;2073676;28;20227;-63
2021/12/08 04:09:56;;;;;;;21.08;14.48;;;;;;;5.40;63.73;100682.16;2073590;28;20163;-63
2021/12/08 04:10:58;;;;;;;19.50;13.88;;;;;;;5.57;63.54;100709.63;2072922;28;20192;-63
2021/12/08 04:12:01;;;;;;;17.20;13.10;;;;;;;5.24;62.91;100666.09;2073567;28;20187;-62
2021/12/08 04:13:01;;;;;;;18.52;13.60;;;;;;;5.51;64.07;100715.91;2073489;28;20665;-63
2021/12/08 04:14:08;;;;;;;18.17;14.23;;;;;;;5.33;64.07;100693.94;2073711;28;20576;-63
2021/12/08 04:15:11;;;;;;;18.65;13.70;;;;;;;5.52;64.03;100718.25;2073094;28;20653;-63
2021/12/08 04:16:14;;;;;;;19.65;14.25;;;;;;;5.45;64.08;100701.00;2073542;28;20173;-62
2021/12/08 04:17:24;;;;;;;20.17;14.95;;;;;;;5.56;63.06;100721.00;2073007;28;20189;-62
2021/12/08 04:18:26;;;;;;;20.35;14.93;;;;;;;5.58;63.52;100721.38;2073521;28;20686;-62
2021/12/08 04:19:26;;;;;;;19.85;14.40;;;;;;;4.34;64.09;100529.69;2072937;28;20187;-62
2021/12/08 04:20:35;;;;;;;20.53;14.63;;;;;;;5.54;63.60;100732.38;2073511;28;20184;-62
2021/12/08 04:21:36;;;;;;;19.40;14.73;;;;;;;5.57;63.71;100725.31;2073610;28;20556;-63
2021/12/08 04:22:40;;;;;;;19.08;14.20;;;;;;;5.58;63.46;100721.38;2073411;28;20262;-63
2021/12/08 04:23:42;;;;;;;20.88;15.02;;;;;;;5.59;63.47;100729.22;2073255;28;20641;-63
2021/12/08 04:24:45;;;;;;;20.63;15.35;;;;;;;5.56;64.16;100721.00;2073060;28;20186;-62
2021/12/08 04:25:49;;;;;;;20.60;15.20;;;;;;;5.60;63.78;100730.78;2073168;28;20184;-62
2021/12/08 04:27:03;;;;;;;19.55;15.23;;;;;;;5.61;63.28;100724.13;2080487;28;20187;-62
2021/12/08 04:28:08;;;;;;;19.73;15.02;;;;;;;5.67;63.67;100736.28;2078426;28;20585;-62
2021/12/08 04:29:10;;;;;;;20.33;15.07;;;;;;;5.58;63.25;100724.91;2072807;28;20542;-63
2021/12/08 04:30:20;;;;;;;21.25;15.40;;;;;;;5.68;63.85;100742.56;2073253;28;20186;-62
2021/12/08 04:31:28;;;;;;;20.38;15.65;;;;;;;5.66;63.55;100745.72;2073354;28;20186;-62
2021/12/08 04:32:30;;;;;;;22.33;15.98;;;;;;;5.26;63.81;100687.66;2073277;28;20616;-63
2021/12/08 04:33:33;;;;;;;20.40;15.70;;;;;;;5.58;63.02;100752.41;2073047;28;20329;-62
2021/12/08 04:34:39;;;;;;;19.50;15.10;;;;;;;5.54;63.62;100745.34;2073311;28;20184;-62
2021/12/08 04:35:42;;;;;;;21.52;15.43;;;;;;;5.54;63.49;100759.88;2073508;28;20630;-62
2021/12/08 04:36:47;;;;;;;19.48;15.57;;;;;;;5.42;63.58;100751.25;2073234;28;20220;-63
2021/12/08 04:37:53;;;;;;;20.00;14.95;;;;;;;5.40;63.92;100759.91;2071838;28;20275;-63
2021/12/08 04:38:58;;;;;;;22.27;16.77;;;;;;;4.90;63.36;100686.94;2073395;28;20180;-63
2021/12/08 04:40:28;;;;;;;22.77;16.23;;;;;;;5.41;63.67;100755.19;2073423;28;20217;-62
2021/12/08 04:41:38;;;;;;;19.45;15.00;;;;;;;4.91;63.42;100673.97;2073316;28;20179;-62
2021/12/08 04:43:00;;;;;;;22.25;15.75;;;;;;;5.45;63.98;100759.50;2079494;28;20183;-63
2021/12/08 04:45:18;;;;;;;20.95;15.82;;;;;;;5.30;63.92;100762.66;2073445;28;20693;-63
2021/12/08 05:06:03;;;;;;;22.05;15.70;;;;;;;4.99;64.44;100788.16;2065018;28;20600;-63
2021/12/08 05:08:21;;;;;;;22.10;15.60;;;;;;;4.70;64.88;100756.31;2064093;28;20180;-62
2021/12/08 05:09:26;;;;;;;22.58;16.20;;;;;;;4.91;64.93;100795.59;2069075;28;20177;-63
2021/12/08 05:10:33;;;;;;;22.25;16.77;;;;;;;4.94;65.10;100791.28;2072806;28;20187;-63
2021/12/08 05:11:39;;;;;;;22.27;16.20;;;;;;;4.93;64.59;100787.72;2072534;28;20174;-63
2021/12/08 05:12:40;;;;;;;20.95;16.27;;;;;;;4.46;65.34;100727.66;2072505;28;20166;-62
2021/12/08 05:13:43;;;;;;;21.97;15.43;;;;;;;4.99;64.85;100802.66;2072316;28;20236;-62
2021/12/08 05:14:53;;;;;;;21.02;15.80;;;;;;;5.03;64.77;100797.94;2072892;28;20179;-63
2021/12/08 05:15:56;;;;;;;21.77;16.27;;;;;;;4.32;64.29;100677.44;2072357;28;20183;-63
2021/12/08 05:17:07;;;;;;;20.98;16.27;;;;;;;4.97;64.07;100785.00;2068662;28;20190;-63
2021/12/08 05:18:10;;;;;;;20.90;15.73;;;;;;;5.04;64.49;100796.00;2071776;28;20160;-63
2021/12/08 05:19:17;;;;;;;24.85;16.80;;;;;;;5.10;64.78;100799.91;2072811;28;20191;-63
2021/12/08 05:20:25;;;;;;;21.25;15.10;;;;;;;5.02;64.37;100790.88;2072920;28;20644;-63
2021/12/08 05:21:36;;;;;;;21.27;16.15;;;;;;;5.04;63.75;100796.00;2072957;28;20210;-63
2021/12/08 05:22:43;;;;;;;21.70;15.85;;;;;;;5.10;64.74;100799.91;2072623;28;20167;-63
2021/12/08 05:24:00;;;;;;;21.30;15.70;;;;;;;5.05;64.35;100805.81;2073108;28;21012;-63
2021/12/08 05:25:06;;;;;;;21.95;15.90;;;;;;;5.04;63.88;100799.53;2072977;28;20173;-63
2021/12/08 05:26:21;;;;;;;19.55;15.38;;;;;;;5.03;64.27;100808.94;2072705;28;20178;-63
2021/12/08 05:27:30;;;;;;;20.42;15.18;;;;;;;5.00;64.19;100806.97;2071433;28;20210;-63
2021/12/08 05:28:32;;;;;;;21.38;15.57;;;;;;;5.01;64.02;100811.28;2073044;28;20159;-63
2021/12/08 05:29:39;;;;;;;22.17;15.55;;;;;;;4.24;63.76;100692.31;2072907;28;20174;-63
2021/12/08 05:31:03;;;;;;;20.50;15.20;;;;;;;5.03;63.75;100822.66;2073171;28;20163;-63
2021/12/08 05:32:05;;;;;;;19.73;14.85;;;;;;;4.95;63.41;100807.38;2072660;28;20294;-63
2021/12/08 05:33:08;;;;;;;19.58;14.63;;;;;;;4.99;63.39;100807.38;2072851;28;20718;-63
2021/12/08 05:34:10;;;;;;;20.48;15.18;;;;;;;4.92;63.27;100799.91;2072745;28;20179;-63
2021/12/08 05:35:14;;;;;;;19.60;15.25;;;;;;;4.94;63.62;100799.50;2080066;28;20723;-63
2021/12/08 05:36:15;;;;;;;18.27;14.40;;;;;;;4.99;63.72;100799.13;2079379;28;20687;-63